createdAt,value
2023-03-26T00:00:50.451Z,0.40
2023-03-26T00:02:23.614Z,0.40
2023-03-26T00:03:58.072Z,0.38
2023-03-26T00:05:32.291Z,0.32
2023-03-26T00:07:04.124Z,0.40
2023-03-26T00:08:37.936Z,0.30
2023-03-26T00:10:10.196Z,0.50
2023-03-26T00:11:43.132Z,0.43
2023-03-26T00:13:14.902Z,0.43
2023-03-26T00:14:46.709Z,0.47
2023-03-26T00:16:19.934Z,0.50
2023-03-26T00:17:54.360Z,0.50
2023-03-26T00:19:26.157Z,0.45
2023-03-26T00:21:05.671Z,0.60
2023-03-26T00:22:37.438Z,0.40
2023-03-26T00:24:15.498Z,0.40
2023-03-26T00:25:51.040Z,0.40
2023-03-26T00:27:23.356Z,0.30
2023-03-26T00:28:55.131Z,0.57
2023-03-26T00:30:27.852Z,0.43
2023-03-26T00:31:59.782Z,0.63
2023-03-26T00:33:32.343Z,0.38
2023-03-26T00:35:05.010Z,0.47
2023-03-26T00:36:37.429Z,0.75
2023-03-26T00:38:09.255Z,0.68
2023-03-26T00:39:42.927Z,0.30
2023-03-26T00:41:18.087Z,0.35
2023-03-26T00:42:50.395Z,0.38
2023-03-26T00:44:22.235Z,0.47
2023-03-26T00:45:55.829Z,0.57
2023-03-26T00:47:29.286Z,0.25
2023-03-26T00:49:02.076Z,0.40
2023-03-26T00:50:33.867Z,0.40
2023-03-26T00:52:08.842Z,0.30
2023-03-26T00:53:41.448Z,0.20
2023-03-26T00:55:13.479Z,0.50
2023-03-26T00:56:45.638Z,0.38
2023-03-26T00:58:17.473Z,0.40
2023-03-26T00:59:50.552Z,0.35
2023-03-26T01:01:29.204Z,0.30
2023-03-26T01:03:03.209Z,0.50
2023-03-26T01:04:35.406Z,0.40
2023-03-26T01:06:11.511Z,0.40
2023-03-26T01:07:44.863Z,0.65
2023-03-26T01:09:21.757Z,0.50
2023-03-26T01:11:03.040Z,0.80
2023-03-26T01:14:27.022Z,0.60
2023-03-26T01:16:02.168Z,0.40
2023-03-26T01:17:38.056Z,0.40
2023-03-26T01:19:18.278Z,0.50
2023-03-26T01:20:51.394Z,0.50
2023-03-26T01:22:27.464Z,0.47
2023-03-26T01:24:05.364Z,0.52
2023-03-26T01:25:44.733Z,0.20
2023-03-26T01:27:39.173Z,0.45
2023-03-26T01:29:20.990Z,0.32
2023-03-26T01:31:06.464Z,0.30
2023-03-26T01:32:51.616Z,0.60
2023-03-26T01:34:49.975Z,0.40
2023-03-26T01:36:32.655Z,0.40
2023-03-26T01:38:23.416Z,0.40
2023-03-26T01:40:06.149Z,0.40
2023-03-26T01:41:56.084Z,0.32
2023-03-26T01:43:35.487Z,0.30
2023-03-26T01:45:16.831Z,0.40
2023-03-26T01:46:50.267Z,0.30
2023-03-26T01:48:30.601Z,0.40
2023-03-26T01:50:02.436Z,0.25
2023-03-26T01:51:36.016Z,0.30
2023-03-26T01:53:10.503Z,0.20
2023-03-26T01:54:43.239Z,0.30
2023-03-26T01:56:36.883Z,0.50
2023-03-26T01:58:24.342Z,0.40
2023-03-26T01:59:58.978Z,0.30
2023-03-26T02:01:44.982Z,0.30
2023-03-26T02:03:32.111Z,0.30
2023-03-26T02:05:12.997Z,0.38
2023-03-26T02:06:51.720Z,0.30
2023-03-26T02:08:25.504Z,0.22
2023-03-26T02:10:05.752Z,0.28
2023-03-26T02:11:39.879Z,0.20
2023-03-26T02:13:13.438Z,0.30
2023-03-26T02:14:45.916Z,0.40
2023-03-26T02:16:20.177Z,0.32
2023-03-26T02:17:54.330Z,0.40
2023-03-26T02:19:26.230Z,0.30
2023-03-26T02:20:58.023Z,0.40
2023-03-26T02:22:30.108Z,0.30
2023-03-26T02:24:04.065Z,0.20
2023-03-26T02:25:42.140Z,0.20
2023-03-26T02:27:14.660Z,0.30
2023-03-26T02:28:47.919Z,0.30
2023-03-26T02:30:25.967Z,0.20
2023-03-26T02:32:02.420Z,0.32
2023-03-26T02:33:34.346Z,0.30
2023-03-26T02:35:07.103Z,0.40
2023-03-26T02:36:43.060Z,0.30
2023-03-26T02:38:15.206Z,0.30
2023-03-26T02:39:47.619Z,0.30
2023-03-26T02:41:29.222Z,0.30
2023-03-26T02:43:05.551Z,0.30
2023-03-26T02:44:40.405Z,0.40
2023-03-26T02:46:24.133Z,0.40
2023-03-26T02:48:09.525Z,0.43
2023-03-26T02:49:53.038Z,0.47
2023-03-26T02:51:45.142Z,0.30
2023-03-26T02:53:29.902Z,0.40
2023-03-26T02:55:19.318Z,0.30
2023-03-26T02:56:52.036Z,0.30
2023-03-26T02:58:42.612Z,0.50
2023-03-26T03:00:14.766Z,0.38
2023-03-26T03:01:52.209Z,0.40
2023-03-26T03:03:27.218Z,0.28
2023-03-26T03:05:02.235Z,0.40
2023-03-26T03:06:39.064Z,0.30
2023-03-26T03:08:10.896Z,0.35
2023-03-26T03:09:50.834Z,0.45
2023-03-26T03:11:52.810Z,0.20
2023-03-26T03:13:24.803Z,0.30
2023-03-26T03:14:56.722Z,0.30
2023-03-26T03:16:28.962Z,0.20
2023-03-26T03:18:03.117Z,0.20
2023-03-26T03:19:37.987Z,0.40
2023-03-26T03:21:10.068Z,0.30
2023-03-26T03:22:42.008Z,0.40
2023-03-26T03:24:14.179Z,0.40
2023-03-26T03:25:51.067Z,0.35
2023-03-26T03:27:24.010Z,0.35
2023-03-26T03:29:02.684Z,0.40
2023-03-26T03:30:35.910Z,0.20
2023-03-26T03:32:22.841Z,0.30
2023-03-26T03:33:56.819Z,0.30
2023-03-26T03:35:30.519Z,0.20
2023-03-26T03:37:05.524Z,0.20
2023-03-26T03:40:21.726Z,0.20
2023-03-26T03:41:53.780Z,0.20
2023-03-26T03:43:25.663Z,0.30
2023-03-26T03:45:14.342Z,0.22
2023-03-26T03:46:49.495Z,0.50
2023-03-26T03:48:21.520Z,0.28
2023-03-26T03:49:53.940Z,0.40
2023-03-26T03:51:26.055Z,0.22
2023-03-26T03:53:01.410Z,0.30
2023-03-26T03:54:33.903Z,0.30
2023-03-26T03:56:39.771Z,0.30
2023-03-26T03:58:31.228Z,0.32
2023-03-26T04:00:14.962Z,0.40
2023-03-26T04:01:55.135Z,0.40
2023-03-26T04:03:39.234Z,0.40
2023-03-26T04:05:16.375Z,0.30
2023-03-26T04:06:52.878Z,0.40
2023-03-26T04:08:25.681Z,0.30
2023-03-26T04:10:00.559Z,0.30
2023-03-26T04:11:37.030Z,0.38
2023-03-26T04:13:31.966Z,0.40
2023-03-26T04:15:22.850Z,0.35
2023-03-26T04:16:55.179Z,0.28
2023-03-26T04:18:29.768Z,0.50
2023-03-26T04:20:07.051Z,0.60
2023-03-26T04:21:39.779Z,0.32
2023-03-26T04:23:14.373Z,0.38
2023-03-26T04:24:49.939Z,0.55
2023-03-26T04:26:34.031Z,0.40
2023-03-26T04:28:12.045Z,0.40
2023-03-26T04:30:06.917Z,0.40
2023-03-26T04:31:39.279Z,0.70
2023-03-26T04:33:15.680Z,0.50
2023-03-26T04:34:48.869Z,0.40
2023-03-26T04:36:27.709Z,0.30
2023-03-26T04:38:01.332Z,0.40
2023-03-26T04:39:40.270Z,0.40
2023-03-26T04:41:32.639Z,0.47
2023-03-26T04:43:16.530Z,0.47
2023-03-26T04:45:06.735Z,0.30
2023-03-26T04:46:38.745Z,0.45
2023-03-26T04:48:22.158Z,0.50
2023-03-26T04:49:53.982Z,0.50
2023-03-26T04:51:30.403Z,0.43
2023-03-26T04:53:03.182Z,0.52
2023-03-26T04:54:53.438Z,0.50
2023-03-26T04:56:43.535Z,0.30
2023-03-26T04:58:18.895Z,0.35
2023-03-26T05:00:08.889Z,0.55
2023-03-26T05:01:42.139Z,0.57
2023-03-26T05:03:16.709Z,0.30
2023-03-26T05:04:50.170Z,0.50
2023-03-26T05:06:23.102Z,0.40
2023-03-26T05:07:55.441Z,0.45
2023-03-26T05:09:28.227Z,0.45
2023-03-26T05:11:20.829Z,0.32
2023-03-26T05:12:52.685Z,0.40
2023-03-26T05:14:31.078Z,0.47
2023-03-26T05:16:04.041Z,0.40
2023-03-26T05:17:45.228Z,0.47
2023-03-26T05:19:25.937Z,0.22
2023-03-26T05:20:58.364Z,0.50
2023-03-26T05:22:31.564Z,0.35
2023-03-26T05:24:14.853Z,0.40
2023-03-26T05:25:47.360Z,0.50
2023-03-26T05:27:25.069Z,0.40
2023-03-26T05:28:57.271Z,0.20
2023-03-26T05:30:34.639Z,0.60
2023-03-26T05:32:08.004Z,0.30
2023-03-26T05:33:40.353Z,0.60
2023-03-26T05:35:17.824Z,0.70
2023-03-26T05:36:50.760Z,0.40
2023-03-26T05:38:47.440Z,0.50
2023-03-26T05:40:23.665Z,0.53
2023-03-26T05:42:01.910Z,0.50
2023-03-26T05:43:49.141Z,0.60
2023-03-26T05:45:25.516Z,0.45
2023-03-26T05:46:57.332Z,0.85
2023-03-26T05:48:31.828Z,0.52
2023-03-26T05:50:05.154Z,0.47
2023-03-26T05:51:41.373Z,0.40
2023-03-26T05:53:36.094Z,0.32
2023-03-26T05:55:26.252Z,0.60
2023-03-26T05:57:24.166Z,0.40
2023-03-26T05:59:15.549Z,0.60
2023-03-26T06:01:17.282Z,0.68
2023-03-26T06:03:12.949Z,0.60
2023-03-26T06:05:14.169Z,0.40
2023-03-26T06:06:52.887Z,0.70
2023-03-26T06:08:25.950Z,0.60
2023-03-26T06:09:58.423Z,0.60
2023-03-26T06:11:32.183Z,0.60
2023-03-26T06:13:05.392Z,0.50
2023-03-26T06:14:40.061Z,0.40
2023-03-26T06:16:32.200Z,0.60
2023-03-26T06:18:26.626Z,0.45
2023-03-26T06:20:23.228Z,0.60
2023-03-26T06:21:56.949Z,0.55
2023-03-26T06:23:36.510Z,0.50
2023-03-26T06:25:34.438Z,0.50
2023-03-26T06:27:13.021Z,0.40
2023-03-26T06:29:05.528Z,0.50
2023-03-26T06:30:51.676Z,0.52
2023-03-26T06:32:41.890Z,0.43
2023-03-26T06:34:22.332Z,0.47
2023-03-26T06:35:54.538Z,0.50
2023-03-26T06:37:26.577Z,0.50
2023-03-26T06:39:07.581Z,0.60
2023-03-26T06:40:41.588Z,0.60
2023-03-26T06:43:06.737Z,0.95
2023-03-26T06:44:38.928Z,0.60
2023-03-26T06:46:36.475Z,0.40
2023-03-26T06:48:37.532Z,0.47
2023-03-26T06:50:29.869Z,0.50
2023-03-26T06:52:32.216Z,0.50
2023-03-26T06:57:39.141Z,0.63
2023-03-26T06:59:43.108Z,0.70
2023-03-26T07:01:33.532Z,0.57
2023-03-26T07:03:24.051Z,0.50
2023-03-26T07:05:14.889Z,0.57
2023-03-26T07:07:05.635Z,0.57
2023-03-26T07:08:57.552Z,0.90
2023-03-26T07:10:48.130Z,0.50
2023-03-26T07:12:41.738Z,0.70
2023-03-26T07:14:51.968Z,0.60
2023-03-26T07:16:43.589Z,0.63
2023-03-26T07:18:18.483Z,0.50
2023-03-26T07:19:52.840Z,0.60
2023-03-26T07:21:28.485Z,0.85
2023-03-26T07:23:00.624Z,0.70
2023-03-26T07:24:55.942Z,0.70
2023-03-26T07:27:11.395Z,0.60
2023-03-26T07:29:04.644Z,0.60
2023-03-26T07:31:01.922Z,0.70
2023-03-26T07:33:23.920Z,0.50
2023-03-26T07:35:29.065Z,0.60
2023-03-26T07:37:38.202Z,0.50
2023-03-26T07:39:46.630Z,0.30
2023-03-26T07:44:02.779Z,0.70
2023-03-26T07:45:58.051Z,0.40
2023-03-26T07:49:31.677Z,0.50
2023-03-26T07:51:19.058Z,0.50
2023-03-26T07:52:56.913Z,0.40
2023-03-26T07:54:36.633Z,0.68
2023-03-26T07:56:38.849Z,0.60
2023-03-26T07:58:48.149Z,0.57
2023-03-26T08:00:50.215Z,0.47
2023-03-26T08:02:52.770Z,0.75
2023-03-26T08:05:10.705Z,0.55
2023-03-26T08:07:34.046Z,0.70
2023-03-26T08:09:31.014Z,0.70
2023-03-26T08:11:07.371Z,0.45
2023-03-26T08:12:50.023Z,0.70
2023-03-26T08:14:42.678Z,0.70
2023-03-26T08:16:23.310Z,0.65
2023-03-26T08:18:12.008Z,0.60
2023-03-26T08:19:52.638Z,0.60
2023-03-26T08:21:31.971Z,0.60
2023-03-26T08:23:13.640Z,0.57
2023-03-26T08:25:16.833Z,0.80
2023-03-26T08:27:13.648Z,0.60
2023-03-26T08:29:11.079Z,0.55
2023-03-26T08:30:43.219Z,0.70
2023-03-26T08:32:17.928Z,0.60
2023-03-26T08:33:50.301Z,0.40
2023-03-26T08:35:22.674Z,0.77
2023-03-26T08:36:54.521Z,0.80
2023-03-26T08:38:26.594Z,0.60
2023-03-26T08:39:58.399Z,1.10
2023-03-26T08:41:48.609Z,0.65
2023-03-26T08:43:39.177Z,0.77
2023-03-26T08:45:20.165Z,0.80
2023-03-26T08:47:23.626Z,0.63
2023-03-26T08:49:36.603Z,0.60
2023-03-26T08:51:42.631Z,0.80
2023-03-26T08:53:48.261Z,0.63
2023-03-26T08:55:41.797Z,0.63
2023-03-26T08:57:41.663Z,0.70
2023-03-26T08:59:19.198Z,0.65
2023-03-26T09:01:18.823Z,0.80
2023-03-26T09:03:17.348Z,0.50
2023-03-26T09:05:08.203Z,1.13
2023-03-26T09:07:06.981Z,0.70
2023-03-26T09:09:00.805Z,0.70
2023-03-26T09:10:44.976Z,0.50
2023-03-26T09:12:38.500Z,0.98
2023-03-26T09:14:36.065Z,0.73
2023-03-26T09:16:16.851Z,0.80
2023-03-26T09:18:26.270Z,0.70
2023-03-26T09:20:37.261Z,0.70
2023-03-26T09:22:30.942Z,0.98
2023-03-26T09:24:30.519Z,0.93
2023-03-26T09:26:14.289Z,0.80
2023-03-26T09:28:16.475Z,0.70
2023-03-26T09:30:25.560Z,0.80
2023-03-26T09:32:31.733Z,0.43
2023-03-26T09:34:30.365Z,1.05
2023-03-26T09:36:37.981Z,0.70
2023-03-26T09:38:50.692Z,0.60
2023-03-26T09:40:47.291Z,0.70
2023-03-26T09:42:45.071Z,0.73
2023-03-26T09:44:39.846Z,0.73
2023-03-26T09:46:36.965Z,0.60
2023-03-26T09:48:38.829Z,0.90
2023-03-26T09:50:31.894Z,0.60
2023-03-26T09:52:21.780Z,0.70
2023-03-26T09:54:21.203Z,0.82
2023-03-26T09:56:08.228Z,0.85
2023-03-26T09:57:58.703Z,0.73
2023-03-26T10:00:10.353Z,0.88
2023-03-26T10:02:04.516Z,0.80
2023-03-26T10:03:50.215Z,0.98
2023-03-26T10:05:47.123Z,0.73
2023-03-26T10:08:01.672Z,0.88
2023-03-26T10:09:56.858Z,0.65
2023-03-26T10:12:02.645Z,0.60
2023-03-26T10:13:51.173Z,0.60
2023-03-26T10:15:45.470Z,0.80
2023-03-26T10:17:35.908Z,0.90
2023-03-26T10:19:36.211Z,0.63
2023-03-26T10:21:40.691Z,0.70
2023-03-26T10:23:53.488Z,0.52
2023-03-26T10:26:04.072Z,0.90
2023-03-26T10:27:47.770Z,0.60
2023-03-26T10:29:52.215Z,0.70
2023-03-26T10:31:52.250Z,0.77
2023-03-26T10:33:54.218Z,0.70
2023-03-26T10:35:45.024Z,0.70
2023-03-26T10:37:35.654Z,0.57
2023-03-26T10:39:36.781Z,0.60
2023-03-26T10:41:21.740Z,0.57
2023-03-26T10:43:21.383Z,0.52
2023-03-26T10:45:13.327Z,0.50
2023-03-26T10:47:14.691Z,0.60
2023-03-26T10:49:07.848Z,0.77
2023-03-26T10:51:23.274Z,0.40
2023-03-26T10:53:03.415Z,0.50
2023-03-26T10:54:56.104Z,0.60
2023-03-26T10:56:36.201Z,0.50
2023-03-26T10:58:48.766Z,0.60
2023-03-26T11:00:29.185Z,0.50
2023-03-26T11:02:29.472Z,0.65
2023-03-26T11:04:28.349Z,0.52
2023-03-26T11:06:11.938Z,0.60
2023-03-26T11:07:53.993Z,0.52
2023-03-26T11:09:33.214Z,0.40
2023-03-26T11:11:19.926Z,0.60
2023-03-26T11:13:04.982Z,0.50
2023-03-26T11:14:57.871Z,0.50
2023-03-26T11:16:35.039Z,0.47
2023-03-26T11:18:19.894Z,0.75
2023-03-26T11:19:59.114Z,0.50
2023-03-26T11:21:50.004Z,0.40
2023-03-26T11:23:41.154Z,0.50
2023-03-26T11:25:28.304Z,0.50
2023-03-26T11:27:17.434Z,0.43
2023-03-26T11:29:31.426Z,0.70
2023-03-26T11:31:13.651Z,0.45
2023-03-26T11:32:52.021Z,0.40
2023-03-26T11:34:32.660Z,0.50
2023-03-26T11:36:12.401Z,0.55
2023-03-26T11:37:48.739Z,0.52
2023-03-26T11:39:26.148Z,0.57
2023-03-26T11:41:00.471Z,0.60
2023-03-26T11:43:04.668Z,0.60
2023-03-26T11:44:44.423Z,0.82
2023-03-26T11:46:19.447Z,0.55
2023-03-26T11:47:55.901Z,0.70
2023-03-26T11:49:29.657Z,0.60
2023-03-26T11:51:38.803Z,0.60
2023-03-26T11:53:17.870Z,0.50
2023-03-26T11:54:50.685Z,0.50
2023-03-26T11:57:04.389Z,0.50
2023-03-26T11:58:47.609Z,0.80
2023-03-26T12:00:23.235Z,0.80
2023-03-26T12:02:04.945Z,0.93
2023-03-26T12:03:38.347Z,0.55
2023-03-26T12:05:11.011Z,0.70
2023-03-26T12:06:57.853Z,0.60
2023-03-26T12:08:38.850Z,0.63
2023-03-26T12:10:27.123Z,0.47
2023-03-26T12:12:04.359Z,0.40
2023-03-26T12:13:42.274Z,0.70
2023-03-26T12:15:19.283Z,0.50
2023-03-26T12:17:05.007Z,0.65
2023-03-26T12:18:39.899Z,0.55
2023-03-26T12:20:25.052Z,0.50
2023-03-26T12:21:57.230Z,0.75
2023-03-26T12:23:54.160Z,0.50
2023-03-26T12:25:31.786Z,0.65
2023-03-26T12:27:22.096Z,0.60
2023-03-26T12:28:54.286Z,0.77
2023-03-26T12:30:30.955Z,0.80
2023-03-26T12:32:15.114Z,0.80
2023-03-26T12:34:16.430Z,0.80
2023-03-26T12:35:49.148Z,0.60
2023-03-26T12:37:50.411Z,0.73
2023-03-26T12:40:08.147Z,0.73
2023-03-26T12:44:43.722Z,0.50
2023-03-26T12:44:56.289Z,0.80
2023-03-26T12:45:43.504Z,0.88
2023-03-26T12:49:11.729Z,0.60
2023-03-26T12:51:43.483Z,0.63
2023-03-26T12:53:56.419Z,1.05
2023-03-26T12:56:01.571Z,0.77
2023-03-26T12:57:40.652Z,0.68
2023-03-26T12:59:18.720Z,0.82
2023-03-26T13:01:07.634Z,0.80
2023-03-26T13:02:49.546Z,0.90
2023-03-26T13:05:04.297Z,0.68
2023-03-26T13:07:00.339Z,0.68
2023-03-26T13:08:56.392Z,0.80
2023-03-26T13:10:48.571Z,0.75
2023-03-26T13:12:46.387Z,0.88
2023-03-26T13:14:27.270Z,0.50
2023-03-26T13:16:16.590Z,0.65
2023-03-26T13:18:18.322Z,0.63
2023-03-26T13:20:00.311Z,0.80
2023-03-26T13:21:57.320Z,0.80
2023-03-26T13:23:57.092Z,0.70
2023-03-26T13:25:41.410Z,0.85
2023-03-26T13:27:29.769Z,0.82
2023-03-26T13:29:14.499Z,0.88
2023-03-26T13:31:11.822Z,0.95
2023-03-26T13:33:04.459Z,1.20
2023-03-26T13:34:36.560Z,0.80
2023-03-26T13:36:24.317Z,0.90
2023-03-26T13:38:20.428Z,0.65
2023-03-26T13:40:15.665Z,0.80
2023-03-26T13:42:02.274Z,1.15
2023-03-26T13:43:59.011Z,0.73
2023-03-26T13:45:55.775Z,0.80
2023-03-26T13:47:35.914Z,0.60
2023-03-26T13:49:15.740Z,0.80
2023-03-26T13:51:00.723Z,0.90
2023-03-26T13:52:44.978Z,0.88
2023-03-26T13:54:40.368Z,0.98
2023-03-26T13:56:17.536Z,0.70
2023-03-26T13:58:02.303Z,0.75
2023-03-26T14:00:10.438Z,0.75
2023-03-26T14:02:02.493Z,0.68
2023-03-26T14:03:52.739Z,1.10
2023-03-26T14:05:32.359Z,0.55
2023-03-26T14:07:09.079Z,0.90
2023-03-26T14:08:49.354Z,0.50
2023-03-26T14:10:27.512Z,1.00
2023-03-26T14:12:33.587Z,0.77
2023-03-26T14:14:16.727Z,0.70
2023-03-26T14:15:58.119Z,0.68
2023-03-26T14:17:49.155Z,0.77
2023-03-26T14:19:39.326Z,0.70
2023-03-26T14:21:16.942Z,0.60
2023-03-26T14:23:28.052Z,1.00
2023-03-26T14:25:26.412Z,0.55
2023-03-26T14:27:05.655Z,0.80
2023-03-26T14:29:02.298Z,1.10
2023-03-26T14:31:09.534Z,0.88
2023-03-26T14:33:27.266Z,1.08
2023-03-26T14:35:28.213Z,0.90
2023-03-26T14:37:11.296Z,1.00
2023-03-26T14:39:13.046Z,0.90
2023-03-26T14:42:43.235Z,0.98
2023-03-26T14:44:49.752Z,0.57
2023-03-26T14:46:50.689Z,0.95
2023-03-26T14:48:48.285Z,0.80
2023-03-26T14:50:26.826Z,0.52
2023-03-26T14:52:06.011Z,0.70
2023-03-26T14:53:56.898Z,0.85
2023-03-26T14:56:01.130Z,0.75
2023-03-26T14:57:54.107Z,0.70
2023-03-26T14:59:49.798Z,0.63
2023-03-26T15:01:43.430Z,0.73
2023-03-26T15:03:49.298Z,0.55
2023-03-26T15:05:46.135Z,0.60
2023-03-26T15:07:32.479Z,0.68
2023-03-26T15:09:52.365Z,0.98
2023-03-26T15:12:12.277Z,0.55
2023-03-26T15:14:20.568Z,0.52
2023-03-26T15:16:29.820Z,0.68
2023-03-26T15:18:28.714Z,0.80
2023-03-26T15:20:26.907Z,0.47
2023-03-26T15:22:35.862Z,0.63
2023-03-26T15:24:37.880Z,0.50
2023-03-26T15:26:29.175Z,0.50
2023-03-26T15:28:33.698Z,0.45
2023-03-26T15:30:48.730Z,0.30
2023-03-26T15:32:40.668Z,0.68
2023-03-26T15:35:00.298Z,0.22
2023-03-26T15:36:38.414Z,0.32
2023-03-26T15:38:32.558Z,0.50
2023-03-26T15:40:36.693Z,0.25
2023-03-26T15:42:30.899Z,0.50
2023-03-26T15:44:23.304Z,0.52
2023-03-26T15:46:52.871Z,0.60
2023-03-26T15:48:52.977Z,0.82
2023-03-26T15:50:39.965Z,0.90
2023-03-26T15:52:39.400Z,0.70
2023-03-26T15:54:45.910Z,0.60
2023-03-26T15:56:43.023Z,0.70
2023-03-26T15:58:14.800Z,0.70
2023-03-26T15:59:49.371Z,0.90
2023-03-26T16:01:48.646Z,0.90
2023-03-26T16:03:31.092Z,0.88
2023-03-26T16:05:35.728Z,0.90
2023-03-26T16:07:43.468Z,0.50
2023-03-26T16:09:40.460Z,0.50
2023-03-26T16:11:12.917Z,0.50
2023-03-26T16:13:22.353Z,0.50
2023-03-26T16:15:24.034Z,0.50
2023-03-26T16:16:58.742Z,0.50
2023-03-26T16:18:41.294Z,0.70
2023-03-26T16:20:22.527Z,0.75
2023-03-26T16:22:01.400Z,0.82
2023-03-26T16:23:47.178Z,0.63
2023-03-26T16:26:00.595Z,1.00
2023-03-26T16:27:34.452Z,0.70
2023-03-26T16:29:28.801Z,0.88
2023-03-26T16:31:36.752Z,0.93
2023-03-26T16:33:15.950Z,0.90
2023-03-26T16:34:55.250Z,0.88
2023-03-26T16:36:36.066Z,1.00
2023-03-26T16:38:14.828Z,0.73
2023-03-26T16:39:46.814Z,1.00
2023-03-26T16:41:31.347Z,0.93
2023-03-26T16:43:26.834Z,0.95
2023-03-26T16:45:22.032Z,0.75
2023-03-26T16:47:29.296Z,0.50
2023-03-26T16:49:15.850Z,0.50
2023-03-26T16:51:02.188Z,0.70
2023-03-26T16:53:13.630Z,0.60
2023-03-26T16:54:55.563Z,0.70
2023-03-26T16:56:37.388Z,0.55
2023-03-26T16:58:21.986Z,0.60
2023-03-26T17:00:07.605Z,0.70
2023-03-26T17:01:59.747Z,0.70
2023-03-26T17:03:54.540Z,0.50
2023-03-26T17:05:51.290Z,0.50
2023-03-26T17:07:48.318Z,0.43
2023-03-26T17:09:42.857Z,0.50
2023-03-26T17:11:55.177Z,0.50
2023-03-26T17:13:51.017Z,0.60
2023-03-26T17:15:31.946Z,0.77
2023-03-26T17:17:24.509Z,0.40
2023-03-26T17:19:04.414Z,0.60
2023-03-26T17:20:43.067Z,0.43
2023-03-26T17:22:34.789Z,0.40
2023-03-26T17:24:27.199Z,0.60
2023-03-26T17:26:34.674Z,0.50
2023-03-26T17:28:27.630Z,0.50
2023-03-26T17:30:30.764Z,0.30
2023-03-26T17:32:15.211Z,0.43
2023-03-26T17:33:48.104Z,0.50
2023-03-26T17:35:35.273Z,0.65
2023-03-26T17:37:28.089Z,0.55
2023-03-26T17:39:18.794Z,0.70
2023-03-26T17:40:55.318Z,0.80
2023-03-26T17:42:36.111Z,1.00
2023-03-26T17:44:36.675Z,0.65
2023-03-26T17:46:43.132Z,0.65
2023-03-26T17:48:20.707Z,0.70
2023-03-26T17:50:04.569Z,0.70
2023-03-26T17:52:11.211Z,0.73
2023-03-26T17:53:43.701Z,0.73
2023-03-26T17:55:21.293Z,0.60
2023-03-26T17:56:56.412Z,0.77
2023-03-26T17:58:33.883Z,0.90
2023-03-26T18:00:09.050Z,0.77
2023-03-26T18:01:46.374Z,0.75
2023-03-26T18:03:34.271Z,0.68
2023-03-26T18:05:11.383Z,0.82
2023-03-26T18:07:15.383Z,1.10
2023-03-26T18:08:58.444Z,0.90
2023-03-26T18:11:18.684Z,1.15
2023-03-26T18:12:56.193Z,0.95
2023-03-26T18:15:11.989Z,1.25
2023-03-26T18:16:53.298Z,1.00
2023-03-26T18:18:42.499Z,1.20
2023-03-26T18:20:28.416Z,0.80
2023-03-26T18:22:05.433Z,0.70
2023-03-26T18:23:46.187Z,0.82
2023-03-26T18:25:25.800Z,0.80
2023-03-26T18:27:07.363Z,1.02
2023-03-26T18:28:45.591Z,0.73
2023-03-26T18:30:22.834Z,0.90
2023-03-26T18:32:03.719Z,1.00
2023-03-26T18:35:20.477Z,1.10
2023-03-26T18:37:11.066Z,0.80
2023-03-26T18:38:43.038Z,0.70
2023-03-26T18:40:19.362Z,0.80
2023-03-26T18:41:51.550Z,0.88
2023-03-26T18:43:34.501Z,0.75
2023-03-26T18:45:29.491Z,0.80
2023-03-26T18:47:05.667Z,0.70
2023-03-26T18:48:37.877Z,0.70
2023-03-26T18:50:18.798Z,0.50
2023-03-26T18:51:57.092Z,0.47
2023-03-26T18:53:31.371Z,0.50
2023-03-26T18:55:04.011Z,0.50
2023-03-26T18:56:37.547Z,0.45
2023-03-26T18:58:35.088Z,0.60
2023-03-26T19:00:23.474Z,0.75
2023-03-26T19:01:58.160Z,1.75
2023-03-26T19:03:36.132Z,2.55
2023-03-26T19:05:14.252Z,3.70
2023-03-26T19:06:46.566Z,3.40
2023-03-26T19:08:20.363Z,2.60
2023-03-26T19:09:56.452Z,2.00
2023-03-26T19:11:29.350Z,2.20
2023-03-26T19:13:02.550Z,2.25
2023-03-26T19:14:50.210Z,2.00
2023-03-26T19:16:26.389Z,2.22
2023-03-26T19:18:07.554Z,2.15
2023-03-26T19:19:39.451Z,2.35
2023-03-26T19:21:11.733Z,2.22
2023-03-26T19:22:44.859Z,1.88
2023-03-26T19:24:19.747Z,2.10
2023-03-26T19:25:56.581Z,1.50
2023-03-26T19:27:29.108Z,2.00
2023-03-26T19:29:01.436Z,1.98
2023-03-26T19:30:36.236Z,1.45
2023-03-26T19:32:21.604Z,1.30
2023-03-26T19:34:11.660Z,1.13
2023-03-26T19:35:45.583Z,1.15
2023-03-26T19:37:25.427Z,1.10
2023-03-26T19:39:00.210Z,1.08
2023-03-26T19:40:34.457Z,1.42
2023-03-26T19:42:11.570Z,1.20
2023-03-26T19:43:48.721Z,1.40
2023-03-26T19:45:23.222Z,1.40
2023-03-26T19:47:31.931Z,1.30
2023-03-26T19:49:32.242Z,1.10
2023-03-26T19:51:06.351Z,1.33
2023-03-26T19:52:41.481Z,1.35
2023-03-26T19:54:16.188Z,1.27
2023-03-26T19:55:56.632Z,3.42
2023-03-26T19:57:30.256Z,2.10
2023-03-26T19:59:02.468Z,2.67
2023-03-26T20:00:34.620Z,1.95
2023-03-26T20:02:11.705Z,1.70
2023-03-26T20:03:47.024Z,1.58
2023-03-26T20:05:23.204Z,1.70
2023-03-26T20:06:56.340Z,1.35
2023-03-26T20:08:28.468Z,1.27
2023-03-26T20:10:01.133Z,1.20
2023-03-26T20:11:38.125Z,1.08
2023-03-26T20:13:17.414Z,0.77
2023-03-26T20:14:49.273Z,0.90
2023-03-26T20:16:25.356Z,0.60
2023-03-26T20:17:57.156Z,0.75
2023-03-26T20:19:29.881Z,0.60
2023-03-26T20:21:01.747Z,0.47
2023-03-26T20:22:33.525Z,0.75
2023-03-26T20:24:11.741Z,0.75
2023-03-26T20:25:50.004Z,1.00
2023-03-26T20:27:22.535Z,1.33
2023-03-26T20:28:54.307Z,1.55
2023-03-26T20:30:37.351Z,1.70
2023-03-26T20:32:18.778Z,1.75
2023-03-26T20:33:52.099Z,2.20
2023-03-26T20:35:36.150Z,2.20
2023-03-26T20:37:08.294Z,2.17
2023-03-26T20:38:41.678Z,2.20
2023-03-26T20:40:14.460Z,2.25
2023-03-26T20:41:48.636Z,2.40
2023-03-26T20:43:21.914Z,2.13
2023-03-26T20:44:53.664Z,2.33
2023-03-26T20:46:31.120Z,2.00
2023-03-26T20:48:03.714Z,1.42
2023-03-26T20:49:35.556Z,1.10
2023-03-26T20:51:10.115Z,1.15
2023-03-26T20:52:44.152Z,1.25
2023-03-26T20:54:23.433Z,1.08
2023-03-26T20:55:55.408Z,0.70
2023-03-26T20:57:27.481Z,0.70
2023-03-26T21:00:34.900Z,0.70
2023-03-26T21:02:06.844Z,0.95
2023-03-26T21:03:41.764Z,0.70
2023-03-26T21:05:19.171Z,0.63
2023-03-26T21:06:51.789Z,0.80
2023-03-26T21:08:30.313Z,0.90
2023-03-26T21:10:03.263Z,0.77
2023-03-26T21:11:50.180Z,0.75
2023-03-26T21:13:35.240Z,0.80
2023-03-26T21:15:20.607Z,0.90
2023-03-26T21:16:55.541Z,1.10
2023-03-26T21:18:27.788Z,0.70
2023-03-26T21:20:08.540Z,0.90
2023-03-26T21:21:52.739Z,0.80
2023-03-26T21:23:39.289Z,1.02
2023-03-26T21:25:39.135Z,1.00
2023-03-26T21:27:48.045Z,1.30
2023-03-26T21:29:20.288Z,1.17
2023-03-26T21:30:52.605Z,1.63
2023-03-26T21:32:25.365Z,1.20
2023-03-26T21:33:58.201Z,1.40
2023-03-26T21:35:30.400Z,1.48
2023-03-26T21:37:02.939Z,0.98
2023-03-26T21:38:35.641Z,1.17
2023-03-26T21:40:17.076Z,1.13
2023-03-26T21:42:05.478Z,0.77
2023-03-26T21:43:37.663Z,0.80
2023-03-26T21:45:10.906Z,0.70
2023-03-26T21:46:44.922Z,0.68
2023-03-26T21:48:17.237Z,0.60
2023-03-26T21:49:49.298Z,0.60
2023-03-26T21:51:21.380Z,0.80
2023-03-26T21:52:53.504Z,0.68
2023-03-26T21:54:29.079Z,0.65
2023-03-26T21:56:10.660Z,0.88
2023-03-26T21:57:42.619Z,0.57
2023-03-26T21:59:39.339Z,0.40
2023-03-26T22:01:26.666Z,0.40
2023-03-26T22:03:12.797Z,0.57
2023-03-26T22:04:54.228Z,0.50
2023-03-26T22:08:06.371Z,0.55
2023-03-26T22:09:38.607Z,0.50
2023-03-26T22:11:12.409Z,0.60
2023-03-26T22:12:44.360Z,0.50
2023-03-26T22:14:16.145Z,0.80
2023-03-26T22:15:48.025Z,0.45
2023-03-26T22:17:19.873Z,0.60
2023-03-26T22:18:53.359Z,0.50
2023-03-26T22:20:25.443Z,0.60
2023-03-26T22:21:58.611Z,0.65
2023-03-26T22:23:36.738Z,0.50
2023-03-26T22:25:10.506Z,0.73
2023-03-26T22:26:42.362Z,0.73
2023-03-26T22:28:14.714Z,0.77
2023-03-26T22:29:46.709Z,0.95
2023-03-26T22:31:18.970Z,0.90
2023-03-26T22:32:51.854Z,0.73
2023-03-26T22:34:23.877Z,0.75
2023-03-26T22:35:56.091Z,0.80
2023-03-26T22:37:28.845Z,0.60
2023-03-26T22:39:01.137Z,0.73
2023-03-26T22:40:33.020Z,0.82
2023-03-26T22:42:05.197Z,0.75
2023-03-26T22:43:39.735Z,0.68
2023-03-26T22:45:12.604Z,0.63
2023-03-26T22:46:46.232Z,0.68
2023-03-26T22:48:18.484Z,0.70
2023-03-26T22:49:50.289Z,0.60
2023-03-26T22:51:22.051Z,0.73
2023-03-26T22:52:53.813Z,0.60
2023-03-26T22:54:26.488Z,0.63
2023-03-26T22:55:59.252Z,0.68
2023-03-26T22:57:31.182Z,0.70
2023-03-26T22:59:03.907Z,0.63
2023-03-26T23:00:36.379Z,0.77
2023-03-26T23:02:10.063Z,0.90
2023-03-26T23:03:42.201Z,0.80
2023-03-26T23:05:14.908Z,0.80
2023-03-26T23:06:46.665Z,0.88
2023-03-26T23:08:18.443Z,0.93
2023-03-26T23:09:50.219Z,0.85
2023-03-26T23:11:24.648Z,0.75
2023-03-26T23:12:56.442Z,0.60
2023-03-26T23:14:29.273Z,0.60
2023-03-26T23:16:02.463Z,0.63
2023-03-26T23:17:35.690Z,0.55
2023-03-26T23:19:07.967Z,0.40
2023-03-26T23:20:42.900Z,0.50
2023-03-26T23:22:14.675Z,0.60
2023-03-26T23:23:47.620Z,0.45
2023-03-26T23:25:20.221Z,0.38